createdAt,value
2018-05-12T00:02:19.968Z,75.46
2018-05-12T00:04:55.767Z,75.60
2018-05-12T00:07:30.423Z,75.83
2018-05-12T00:10:06.121Z,75.90
2018-05-12T00:12:41.391Z,75.83
2018-05-12T00:15:17.045Z,76.03
2018-05-12T00:17:51.936Z,76.14
2018-05-12T00:20:26.712Z,76.29
2018-05-12T00:23:01.910Z,76.24
2018-05-12T00:25:37.622Z,76.28
2018-05-12T00:28:13.272Z,76.30
2018-05-12T00:30:48.014Z,76.36
2018-05-12T00:33:23.142Z,76.36
2018-05-12T00:35:57.669Z,76.33
2018-05-12T00:38:32.764Z,76.36
2018-05-12T00:41:07.399Z,76.28
2018-05-12T00:43:42.093Z,76.22
2018-05-12T00:46:17.483Z,76.23
2018-05-12T00:48:52.615Z,76.20
2018-05-12T00:51:29.393Z,76.33
2018-05-12T00:54:04.175Z,76.48
2018-05-12T00:56:39.467Z,76.60
2018-05-12T00:59:14.330Z,76.86
2018-05-12T01:01:49.586Z,76.98
2018-05-12T01:04:24.463Z,77.39
2018-05-12T01:06:59.592Z,77.59
2018-05-12T01:09:34.749Z,77.73
2018-05-12T01:12:09.206Z,77.79
2018-05-12T01:14:44.397Z,77.78
2018-05-12T01:17:19.592Z,77.78
2018-05-12T01:19:55.470Z,77.83
2018-05-12T01:22:30.406Z,77.77
2018-05-12T01:25:05.885Z,77.79
2018-05-12T01:27:40.777Z,77.72
2018-05-12T01:30:16.150Z,77.68
2018-05-12T01:32:51.625Z,77.71
2018-05-12T01:35:26.337Z,77.64
2018-05-12T01:38:01.575Z,77.61
2018-05-12T01:40:37.624Z,77.64
2018-05-12T01:43:12.578Z,77.59
2018-05-12T01:45:47.856Z,77.55
2018-05-12T01:48:23.220Z,77.49
2018-05-12T01:50:58.177Z,77.44
2018-05-12T01:53:32.911Z,77.44
2018-05-12T01:56:07.941Z,77.42
2018-05-12T01:58:42.345Z,77.40
2018-05-12T02:01:16.797Z,77.41
2018-05-12T02:03:52.296Z,77.54
2018-05-12T02:06:27.379Z,77.63
2018-05-12T02:09:02.413Z,77.78
2018-05-12T02:11:37.830Z,77.83
2018-05-12T02:14:12.513Z,77.81
2018-05-12T02:16:47.750Z,77.84
2018-05-12T02:19:22.562Z,77.86
2018-05-12T02:21:57.700Z,77.92
2018-05-12T02:24:32.402Z,78.05
2018-05-12T02:27:07.457Z,78.15
2018-05-12T02:29:42.748Z,78.16
2018-05-12T02:32:17.746Z,78.28
2018-05-12T02:34:52.784Z,78.40
2018-05-12T02:37:27.698Z,78.48
2018-05-12T02:40:02.578Z,78.61
2018-05-12T02:42:37.863Z,78.82
2018-05-12T02:45:13.023Z,78.85
2018-05-12T02:47:47.861Z,78.89
2018-05-12T02:50:23.513Z,78.96
2018-05-12T02:52:57.797Z,79.00
2018-05-12T02:55:33.090Z,79.00
2018-05-12T02:58:08.505Z,78.89
2018-05-12T03:00:43.410Z,78.88
2018-05-12T03:03:18.605Z,79.02
2018-05-12T03:05:53.818Z,79.41
2018-05-12T03:08:28.653Z,79.68
2018-05-12T03:11:03.126Z,79.73
2018-05-12T03:13:38.162Z,79.86
2018-05-12T03:16:13.046Z,80.03
2018-05-12T03:18:47.654Z,80.11
2018-05-12T03:21:22.953Z,80.27
2018-05-12T03:23:58.028Z,80.51
2018-05-12T03:26:33.178Z,80.74
2018-05-12T03:29:08.731Z,80.95
2018-05-12T03:31:43.873Z,81.30
2018-05-12T03:34:18.774Z,81.59
2018-05-12T03:36:53.914Z,81.83
2018-05-12T03:39:28.925Z,82.05
2018-05-12T03:42:03.454Z,82.19
2018-05-12T03:44:38.778Z,82.29
2018-05-12T03:47:13.838Z,82.28
2018-05-12T03:49:49.124Z,82.12
2018-05-12T03:52:23.815Z,82.06
2018-05-12T03:54:59.082Z,82.14
2018-05-12T03:57:34.127Z,82.14
2018-05-12T04:00:09.771Z,82.23
2018-05-12T04:02:44.686Z,82.38
2018-05-12T04:05:30.863Z,82.47
2018-05-12T04:08:17.373Z,82.44
2018-05-12T04:24:27.610Z,82.29
2018-05-12T04:27:02.801Z,82.50
2018-05-12T04:29:38.302Z,82.60
2018-05-12T04:32:13.497Z,82.86
2018-05-12T04:34:48.817Z,83.01
2018-05-12T04:37:23.865Z,83.11
2018-05-12T04:39:58.846Z,83.12
2018-05-12T04:42:33.843Z,83.33
2018-05-12T04:45:08.829Z,83.41
2018-05-12T04:47:44.049Z,83.39
2018-05-12T04:50:19.454Z,83.41
2018-05-12T04:52:54.281Z,83.32
2018-05-12T04:55:29.125Z,83.25
2018-05-12T04:58:03.977Z,83.06
2018-05-12T05:00:38.779Z,82.88
2018-05-12T05:03:14.142Z,82.64
2018-05-12T05:05:49.273Z,82.46
2018-05-12T05:08:24.123Z,82.38
2018-05-12T05:10:59.109Z,82.14
2018-05-12T05:13:33.844Z,81.87
2018-05-12T05:16:08.832Z,81.58
2018-05-12T05:18:44.050Z,81.39
2018-05-12T05:21:18.924Z,81.27
2018-05-12T05:23:55.025Z,81.09
2018-05-12T05:26:29.974Z,81.06
2018-05-12T05:29:04.189Z,80.98
2018-05-12T05:31:38.908Z,80.65
2018-05-12T05:34:13.810Z,80.51
2018-05-12T05:36:48.419Z,80.48
2018-05-12T05:39:23.807Z,80.33
2018-05-12T05:41:58.454Z,80.29
2018-05-12T05:44:33.294Z,79.97
2018-05-12T05:47:08.106Z,79.86
2018-05-12T05:49:43.218Z,79.92
2018-05-12T05:52:17.946Z,80.39
2018-05-12T05:54:52.916Z,80.40
2018-05-12T05:57:27.991Z,80.31
2018-05-12T06:00:02.978Z,80.38
2018-05-12T06:02:38.614Z,80.48
2018-05-12T06:05:13.866Z,80.72
2018-05-12T06:07:49.046Z,80.75
2018-05-12T06:10:24.032Z,80.69
2018-05-12T06:12:58.922Z,80.48
2018-05-12T06:15:34.534Z,80.10
2018-05-12T06:18:09.517Z,80.14
2018-05-12T06:20:44.302Z,80.17
2018-05-12T06:23:19.389Z,79.03
2018-05-12T06:25:54.356Z,78.55
2018-05-12T06:28:29.393Z,78.58
2018-05-12T06:31:04.169Z,78.34
2018-05-12T06:33:39.216Z,77.35
2018-05-12T06:36:14.036Z,76.53
2018-05-12T06:38:49.237Z,75.78
2018-05-12T06:41:24.197Z,74.47
2018-05-12T06:43:59.080Z,74.03
2018-05-12T06:46:34.158Z,73.36
2018-05-12T06:49:09.202Z,73.27
2018-05-12T06:51:44.318Z,73.13
2018-05-12T06:54:19.082Z,70.98
2018-05-12T06:56:54.162Z,69.70
2018-05-12T06:59:29.225Z,68.97
2018-05-12T07:02:03.778Z,68.17
2018-05-12T07:04:39.075Z,68.54
2018-05-12T07:07:14.116Z,67.75
2018-05-12T07:09:49.173Z,67.29
2018-05-12T07:12:23.698Z,67.56
2018-05-12T07:14:58.458Z,66.22
2018-05-12T07:17:33.475Z,65.65
2018-05-12T07:20:07.966Z,65.02
2018-05-12T07:22:43.534Z,65.13
2018-05-12T07:25:18.313Z,65.84
2018-05-12T07:27:53.166Z,65.68
2018-05-12T07:30:28.192Z,65.75
2018-05-12T07:33:03.306Z,65.30
2018-05-12T07:35:38.584Z,64.43
2018-05-12T07:38:14.234Z,63.79
2018-05-12T07:40:49.269Z,62.54
2018-05-12T07:43:23.919Z,62.44
2018-05-12T07:45:58.825Z,62.35
2018-05-12T07:48:33.674Z,62.52
2018-05-12T07:51:08.801Z,62.60
2018-05-12T07:53:44.364Z,62.43
2018-05-12T07:56:19.311Z,62.40
2018-05-12T07:58:54.400Z,62.00
2018-05-12T08:01:29.497Z,62.32
2018-05-12T08:04:04.394Z,62.70
2018-05-12T08:06:39.670Z,61.02
2018-05-12T08:09:14.403Z,60.15
2018-05-12T08:11:49.554Z,60.65
2018-05-12T08:14:24.418Z,59.89
2018-05-12T08:16:59.378Z,60.51
2018-05-12T08:19:34.093Z,60.09
2018-05-12T08:22:08.777Z,60.58
2018-05-12T08:24:43.630Z,60.82
2018-05-12T08:27:18.790Z,60.85
2018-05-12T08:29:53.688Z,59.99
2018-05-12T08:32:29.046Z,60.28
2018-05-12T08:35:03.868Z,60.95
2018-05-12T08:37:38.809Z,60.33
2018-05-12T08:40:13.731Z,59.96
2018-05-12T08:42:48.636Z,59.81
2018-05-12T08:45:23.480Z,59.87
2018-05-12T08:47:58.366Z,58.26
2018-05-12T08:50:33.545Z,56.44
2018-05-12T08:53:08.194Z,56.74
2018-05-12T08:55:43.541Z,56.67
2018-05-12T08:58:18.418Z,56.85
2018-05-12T09:00:53.649Z,56.63
2018-05-12T09:03:28.722Z,55.72
2018-05-12T09:06:03.636Z,54.94
2018-05-12T09:08:38.759Z,55.65
2018-05-12T09:11:13.894Z,55.74
2018-05-12T09:13:48.985Z,54.97
2018-05-12T09:16:24.025Z,55.03
2018-05-12T09:18:59.441Z,56.10
2018-05-12T09:21:34.435Z,56.35
2018-05-12T09:24:09.446Z,56.90
2018-05-12T09:26:45.526Z,57.33
2018-05-12T09:29:20.603Z,57.34
2018-05-12T09:31:55.508Z,56.98
2018-05-12T09:34:30.512Z,56.70
2018-05-12T09:37:05.577Z,54.85
2018-05-12T09:39:40.693Z,54.59
2018-05-12T09:42:15.580Z,55.72
2018-05-12T09:44:50.610Z,56.86
2018-05-12T09:47:25.220Z,57.90
2018-05-12T09:50:00.562Z,57.48
2018-05-12T09:52:35.465Z,58.12
2018-05-12T09:55:09.978Z,58.68
2018-05-12T09:57:44.791Z,59.27
2018-05-12T10:00:26.333Z,59.06
2018-05-12T10:03:00.863Z,59.24
2018-05-12T10:05:35.786Z,59.63
2018-05-12T10:08:10.664Z,60.25
2018-05-12T10:10:45.676Z,60.59
2018-05-12T10:13:21.168Z,61.00
2018-05-12T10:15:55.654Z,60.04
2018-05-12T10:18:31.043Z,57.54
2018-05-12T10:21:05.633Z,56.67
2018-05-12T10:23:40.825Z,56.24
2018-05-12T10:26:15.725Z,56.78
2018-05-12T10:28:50.586Z,56.68
2018-05-12T10:31:25.689Z,55.60
2018-05-12T10:34:00.567Z,54.44
2018-05-12T10:36:35.677Z,53.05
2018-05-12T10:39:10.690Z,52.20
2018-05-12T10:41:45.254Z,51.92
2018-05-12T10:44:20.297Z,52.64
2018-05-12T10:46:55.233Z,53.14
2018-05-12T10:49:30.612Z,52.71
2018-05-12T10:52:05.282Z,51.00
2018-05-12T10:54:40.222Z,52.01
2018-05-12T10:57:15.106Z,50.76
2018-05-12T10:59:50.029Z,50.12
2018-05-12T11:02:25.074Z,50.53
2018-05-12T11:05:00.290Z,50.74
2018-05-12T11:07:35.762Z,51.35
2018-05-12T11:10:10.636Z,50.49
2018-05-12T11:12:45.230Z,49.97
2018-05-12T11:15:20.017Z,48.23
2018-05-12T11:17:55.258Z,48.06
2018-05-12T11:32:33.166Z,44.99
2018-05-12T11:35:08.275Z,43.15
2018-05-12T11:37:43.353Z,43.85
2018-05-12T11:40:18.357Z,45.13
2018-05-12T11:42:53.402Z,44.19
2018-05-12T11:45:28.265Z,44.95
2018-05-12T11:48:03.733Z,44.85
2018-05-12T11:50:39.166Z,45.87
2018-05-12T11:53:13.902Z,45.76
2018-05-12T11:55:49.106Z,46.48
2018-05-12T11:58:23.957Z,45.18
2018-05-12T12:00:59.462Z,44.36
2018-05-12T12:03:34.818Z,45.23
2018-05-12T12:06:09.418Z,45.16
2018-05-12T12:08:44.159Z,45.52
2018-05-12T12:11:19.414Z,45.31
2018-05-12T12:13:54.324Z,44.94
2018-05-12T12:16:29.896Z,45.45
2018-05-12T12:19:04.894Z,44.95
2018-05-12T12:21:39.618Z,45.64
2018-05-12T12:24:14.405Z,45.29
2018-05-12T12:26:49.423Z,45.52
2018-05-12T12:29:24.446Z,45.55
2018-05-12T12:31:59.286Z,46.59
2018-05-12T12:34:34.218Z,46.06
2018-05-12T12:37:09.176Z,45.52
2018-05-12T12:39:44.469Z,45.47
2018-05-12T12:42:19.034Z,45.55
2018-05-12T12:44:54.194Z,46.49
2018-05-12T12:47:28.949Z,45.82
2018-05-12T12:50:03.756Z,46.32
2018-05-12T12:52:39.274Z,45.52
2018-05-12T12:55:13.620Z,45.80
2018-05-12T12:57:49.231Z,46.56
2018-05-12T13:00:23.646Z,46.69
2018-05-12T13:02:58.479Z,47.50
2018-05-12T13:05:33.521Z,47.90
2018-05-12T13:08:08.514Z,47.40
2018-05-12T13:10:43.488Z,46.06
2018-05-12T13:13:18.238Z,46.73
2018-05-12T13:15:53.364Z,47.48
2018-05-12T13:18:28.093Z,47.46
2018-05-12T13:21:03.034Z,100.00
2018-05-12T13:23:39.345Z,48.14
2018-05-12T13:26:14.098Z,100.00
2018-05-12T13:28:49.169Z,47.48
2018-05-12T13:31:23.955Z,47.56
2018-05-12T13:33:59.117Z,48.93
2018-05-12T13:36:34.122Z,48.44
2018-05-12T13:39:08.550Z,100.00
2018-05-12T13:43:40.698Z,47.18
2018-05-12T13:46:15.732Z,47.53
2018-05-12T13:48:50.208Z,47.50
2018-05-12T13:51:25.079Z,47.65
2018-05-12T13:54:00.114Z,48.44
2018-05-12T13:56:35.121Z,47.52
2018-05-12T13:59:09.994Z,48.15
2018-05-12T14:01:46.018Z,48.38
2018-05-12T14:04:20.650Z,48.41
2018-05-12T14:06:56.072Z,47.78
2018-05-12T14:09:31.327Z,48.01
2018-05-12T14:12:06.526Z,47.41
2018-05-12T14:14:41.150Z,46.78
2018-05-12T14:17:16.421Z,46.36
2018-05-12T14:19:51.845Z,46.52
2018-05-12T14:22:27.208Z,47.30
2018-05-12T14:25:02.318Z,47.42
2018-05-12T14:27:37.470Z,47.64
2018-05-12T14:30:12.151Z,48.51
2018-05-12T14:32:47.498Z,47.24
2018-05-12T14:35:23.197Z,47.06
2018-05-12T14:37:58.169Z,46.94
2018-05-12T14:56:30.442Z,47.57
2018-05-12T14:59:05.302Z,49.00
2018-05-12T15:01:39.680Z,48.67
2018-05-12T15:04:14.994Z,49.55
2018-05-12T15:06:49.766Z,49.48
2018-05-12T15:09:25.179Z,50.69
2018-05-12T15:12:00.445Z,49.94
2018-05-12T15:14:35.290Z,50.25
2018-05-12T15:17:10.374Z,49.78
2018-05-12T15:19:45.543Z,50.60
2018-05-12T15:22:20.586Z,50.62
2018-05-12T15:24:55.826Z,50.80
2018-05-12T15:27:31.316Z,51.06
2018-05-12T15:30:06.414Z,51.42
2018-05-12T15:32:41.706Z,51.80
2018-05-12T15:35:17.349Z,52.15
2018-05-12T15:37:52.130Z,52.03
2018-05-12T15:40:27.509Z,52.03
2018-05-12T15:43:02.715Z,51.89
2018-05-12T15:45:37.665Z,51.71
2018-05-12T15:48:12.894Z,52.63
2018-05-12T15:50:47.836Z,53.62
2018-05-12T15:53:22.653Z,53.84
2018-05-12T15:55:57.701Z,53.84
2018-05-12T15:58:32.837Z,53.96
2018-05-12T16:01:08.302Z,53.42
2018-05-12T16:03:43.717Z,54.11
2018-05-12T16:06:18.555Z,54.67
2018-05-12T16:08:53.678Z,55.07
2018-05-12T16:11:28.741Z,55.23
2018-05-12T16:14:03.351Z,55.78
2018-05-12T16:16:39.838Z,55.85
2018-05-12T16:19:15.466Z,56.08
2018-05-12T16:21:50.616Z,55.78
2018-05-12T16:24:25.638Z,55.66
2018-05-12T16:27:00.523Z,55.76
2018-05-12T16:29:35.538Z,55.74
2018-05-12T16:32:10.443Z,55.14
2018-05-12T16:34:45.802Z,54.88
2018-05-12T16:37:20.796Z,55.68
2018-05-12T16:39:55.750Z,56.44
2018-05-12T16:42:31.050Z,57.15
2018-05-12T16:45:06.223Z,57.66
2018-05-12T16:47:41.794Z,57.89
2018-05-12T16:50:16.650Z,58.40
2018-05-12T16:52:51.970Z,58.88
2018-05-12T16:55:27.523Z,59.07
2018-05-12T16:58:01.390Z,59.56
2018-05-12T17:00:35.828Z,60.05
2018-05-12T17:03:10.894Z,60.13
2018-05-12T17:05:46.089Z,60.34
2018-05-12T17:08:21.183Z,60.25
2018-05-12T17:10:55.976Z,60.54
2018-05-12T17:13:31.199Z,60.75
2018-05-12T17:16:06.062Z,61.08
2018-05-12T17:18:41.382Z,61.05
2018-05-12T17:21:16.573Z,61.11
2018-05-12T17:23:51.738Z,61.45
2018-05-12T17:26:26.746Z,61.71
2018-05-12T17:29:02.010Z,61.82
2018-05-12T17:31:37.165Z,62.07
2018-05-12T17:34:12.704Z,62.53
2018-05-12T17:36:47.954Z,62.64
2018-05-12T17:39:23.271Z,62.61
2018-05-12T17:41:58.070Z,62.42
2018-05-12T17:44:32.973Z,62.38
2018-05-12T17:47:08.310Z,62.41
2018-05-12T17:49:43.038Z,62.67
2018-05-12T17:52:17.702Z,62.73
2018-05-12T17:54:53.143Z,62.86
2018-05-12T17:57:28.293Z,63.07
2018-05-12T18:00:03.066Z,63.15
2018-05-12T18:02:38.435Z,63.30
2018-05-12T18:05:13.022Z,63.30
2018-05-12T18:07:47.864Z,63.30
2018-05-12T18:10:22.798Z,63.25
2018-05-12T18:12:57.872Z,63.38
2018-05-12T18:15:32.674Z,63.35
2018-05-12T18:18:07.766Z,63.46
2018-05-12T18:20:42.765Z,63.64
2018-05-12T18:23:17.530Z,63.87
2018-05-12T18:25:52.401Z,63.82
2018-05-12T18:28:27.754Z,63.92
2018-05-12T18:31:02.668Z,64.05
2018-05-12T18:33:37.904Z,64.23
2018-05-12T18:36:12.905Z,64.37
2018-05-12T18:38:48.017Z,64.43
2018-05-12T18:41:23.193Z,64.37
2018-05-12T18:43:58.321Z,64.50
2018-05-12T18:46:33.813Z,64.82
2018-05-12T18:49:08.802Z,64.90
2018-05-12T18:51:44.242Z,64.72
2018-05-12T18:54:18.876Z,64.50
2018-05-12T18:56:54.140Z,64.26
2018-05-12T18:59:28.881Z,64.07
2018-05-12T19:02:03.591Z,64.00
2018-05-12T19:04:40.132Z,63.81
2018-05-12T19:07:14.932Z,63.78
2018-05-12T19:09:49.840Z,63.96
2018-05-12T19:12:24.800Z,63.80
2018-05-12T19:14:59.909Z,63.94
2018-05-12T19:17:34.810Z,64.18
2018-05-12T19:20:09.577Z,64.40
2018-05-12T19:22:45.078Z,64.44
2018-05-12T19:25:19.920Z,64.51
2018-05-12T19:27:54.606Z,64.53
2018-05-12T19:30:30.011Z,64.70
2018-05-12T19:33:04.766Z,64.91
2018-05-12T19:35:40.306Z,65.00
2018-05-12T19:38:15.834Z,65.15
2018-05-12T19:40:51.072Z,65.10
2018-05-12T19:43:25.882Z,65.07
2018-05-12T19:46:00.886Z,64.98
2018-05-12T19:48:36.058Z,65.01
2018-05-12T19:51:11.476Z,65.04
2018-05-12T19:53:46.150Z,65.09
2018-05-12T19:56:21.150Z,65.46
2018-05-12T19:58:55.604Z,65.62
2018-05-12T20:01:30.329Z,65.79
2018-05-12T20:04:04.921Z,65.76
2018-05-12T20:06:40.304Z,65.69
2018-05-12T20:09:15.085Z,66.08
2018-05-12T20:11:50.087Z,66.08
2018-05-12T20:14:24.964Z,66.22
2018-05-12T20:17:00.068Z,66.28
2018-05-12T20:19:35.058Z,66.43
2018-05-12T20:22:10.082Z,66.40
2018-05-12T20:24:45.382Z,66.59
2018-05-12T20:27:19.999Z,66.66
2018-05-12T20:29:55.171Z,66.57
2018-05-12T20:32:30.078Z,66.43
2018-05-12T20:35:04.605Z,66.52
2018-05-12T20:37:40.398Z,66.49
2018-05-12T20:40:15.754Z,66.70
2018-05-12T20:42:50.514Z,67.03
2018-05-12T20:45:25.438Z,67.38
2018-05-12T20:48:00.208Z,67.67
2018-05-12T20:50:35.064Z,67.74
2018-05-12T20:53:10.226Z,67.67
2018-05-12T20:55:45.614Z,67.68
2018-05-12T20:58:21.148Z,67.55
2018-05-12T21:00:56.504Z,67.74
2018-05-12T21:03:31.554Z,67.82
2018-05-12T21:06:07.141Z,67.92
2018-05-12T21:08:42.440Z,68.09
2018-05-12T21:11:17.266Z,68.30
2018-05-12T21:13:51.744Z,68.33
2018-05-12T21:16:26.333Z,68.14
2018-05-12T21:19:01.048Z,67.93
2018-05-12T21:21:36.419Z,67.57
2018-05-12T21:24:11.865Z,67.42
2018-05-12T21:26:47.169Z,67.25
2018-05-12T21:29:21.931Z,67.11
2018-05-12T21:31:57.247Z,67.36
2018-05-12T21:34:32.188Z,67.54
2018-05-12T21:37:07.093Z,67.53
2018-05-12T21:39:41.900Z,67.64
2018-05-12T21:42:16.502Z,67.95
2018-05-12T21:44:51.822Z,68.12
2018-05-12T21:47:27.299Z,68.67
2018-05-12T21:50:02.214Z,68.85
2018-05-12T21:52:37.326Z,68.92
2018-05-12T21:55:12.357Z,68.68
2018-05-12T21:57:47.501Z,68.43
2018-05-12T22:00:22.238Z,68.36
2018-05-12T22:02:57.286Z,68.21
2018-05-12T22:05:32.302Z,68.16
2018-05-12T22:08:07.330Z,68.44
2018-05-12T22:10:42.594Z,68.76
2018-05-12T22:13:17.476Z,69.04
2018-05-12T22:15:52.758Z,69.33
2018-05-12T22:18:27.707Z,69.49
2018-05-12T22:21:03.248Z,69.60
2018-05-12T22:23:38.485Z,69.84
2018-05-12T22:26:13.298Z,69.98
2018-05-12T22:28:49.261Z,70.06
2018-05-12T22:31:24.481Z,70.18
2018-05-12T22:33:59.498Z,70.24
2018-05-12T22:36:34.577Z,70.22
2018-05-12T22:39:09.496Z,70.08
2018-05-12T22:41:44.927Z,69.93
2018-05-12T22:44:20.315Z,69.96
2018-05-12T22:46:55.159Z,70.01
2018-05-12T22:49:30.536Z,70.17
2018-05-12T22:52:05.615Z,70.26
2018-05-12T22:54:40.889Z,70.35
2018-05-12T22:57:15.353Z,70.42
2018-05-12T22:59:50.474Z,70.58
2018-05-12T23:02:25.537Z,70.49
2018-05-12T23:05:00.801Z,70.70
2018-05-12T23:07:35.552Z,70.69
2018-05-12T23:10:10.606Z,70.66
2018-05-12T23:12:45.939Z,70.49
2018-05-12T23:15:20.952Z,70.59
2018-05-12T23:17:56.106Z,70.90
2018-05-12T23:20:30.994Z,71.09
2018-05-12T23:23:06.442Z,71.09
2018-05-12T23:25:40.991Z,71.00
2018-05-12T23:28:16.605Z,71.17
2018-05-12T23:30:51.937Z,71.56
2018-05-12T23:33:26.777Z,71.70
2018-05-12T23:36:01.853Z,71.70
2018-05-12T23:38:36.782Z,71.82
2018-05-12T23:41:11.984Z,71.85
2018-05-12T23:43:46.753Z,71.87
2018-05-12T23:46:21.616Z,72.13
2018-05-12T23:48:56.826Z,72.23
2018-05-12T23:51:31.892Z,72.63
2018-05-12T23:54:07.622Z,73.33
2018-05-12T23:56:42.537Z,73.84
2018-05-12T23:59:17.614Z,74.87
